createdAt,value
2024-02-29T00:02:17.830Z,12.44
2024-02-29T00:04:44.879Z,12.43
2024-02-29T00:07:11.859Z,12.35
2024-02-29T00:09:39.169Z,12.24
2024-02-29T00:12:06.644Z,12.20
2024-02-29T00:14:37.730Z,12.32
2024-02-29T00:17:04.645Z,12.28
2024-02-29T00:19:33.094Z,12.23
2024-02-29T00:22:00.321Z,12.31
2024-02-29T00:24:28.039Z,12.41
2024-02-29T00:26:55.599Z,12.50
2024-02-29T00:29:28.933Z,12.57
2024-02-29T00:32:02.458Z,12.46
2024-02-29T00:34:35.511Z,12.53
2024-02-29T00:37:04.491Z,12.40
2024-02-29T00:39:31.460Z,12.41
2024-02-29T00:41:58.694Z,12.31
2024-02-29T00:44:25.712Z,12.35
2024-02-29T00:46:52.554Z,12.37
2024-02-29T00:49:19.481Z,12.21
2024-02-29T00:51:47.496Z,12.25
2024-02-29T00:54:14.478Z,12.19
2024-02-29T00:56:41.431Z,12.10
2024-02-29T00:59:08.354Z,12.15
2024-02-29T01:01:35.371Z,12.13
2024-02-29T01:04:02.346Z,12.13
2024-02-29T01:06:29.346Z,12.26
2024-02-29T01:08:56.236Z,12.29
2024-02-29T01:11:23.196Z,12.31
2024-02-29T01:13:50.172Z,12.17
2024-02-29T01:16:17.102Z,12.14
2024-02-29T01:18:43.948Z,12.04
2024-02-29T01:21:11.172Z,12.05
2024-02-29T01:23:38.086Z,12.03
2024-02-29T01:26:05.643Z,12.00
2024-02-29T01:28:32.560Z,12.04
2024-02-29T01:31:01.281Z,12.05
2024-02-29T01:33:28.281Z,12.10
2024-02-29T01:35:55.124Z,12.23
2024-02-29T01:38:21.985Z,12.26
2024-02-29T01:40:48.976Z,12.43
2024-02-29T01:43:16.101Z,12.32
2024-02-29T01:45:43.119Z,12.30
2024-02-29T01:48:11.427Z,12.23
2024-02-29T01:50:39.833Z,12.34
2024-02-29T01:53:07.129Z,12.58
2024-02-29T01:55:34.078Z,12.73
2024-02-29T01:58:01.106Z,12.58
2024-02-29T02:00:27.989Z,12.42
2024-02-29T02:02:55.060Z,12.42
2024-02-29T02:05:21.992Z,12.45
2024-02-29T02:07:49.687Z,12.46
2024-02-29T02:10:16.641Z,12.43
2024-02-29T02:12:43.661Z,12.40
2024-02-29T02:15:10.790Z,12.40
2024-02-29T02:17:37.715Z,12.56
2024-02-29T02:20:08.262Z,12.52
2024-02-29T02:22:35.103Z,12.27
2024-02-29T02:25:02.122Z,12.26
2024-02-29T02:27:29.097Z,12.45
2024-02-29T02:29:56.679Z,12.39
2024-02-29T02:32:23.527Z,12.39
2024-02-29T02:34:50.385Z,12.40
2024-02-29T02:37:17.290Z,12.32
2024-02-29T02:39:44.184Z,12.34
2024-02-29T02:42:11.016Z,12.38
2024-02-29T02:44:37.833Z,12.38
2024-02-29T02:47:05.016Z,12.41
2024-02-29T02:49:31.886Z,12.34
2024-02-29T02:51:58.813Z,12.25
2024-02-29T02:54:25.717Z,12.29
2024-02-29T02:56:52.525Z,12.22
2024-02-29T02:59:19.443Z,12.15
2024-02-29T03:01:46.572Z,12.23
2024-02-29T03:04:14.393Z,12.13
2024-02-29T03:06:41.385Z,12.17
2024-02-29T03:09:12.669Z,12.07
2024-02-29T03:11:39.547Z,12.17
2024-02-29T03:14:07.176Z,12.13
2024-02-29T03:16:37.061Z,12.19
2024-02-29T03:19:06.318Z,12.16
2024-02-29T03:21:34.246Z,12.01
2024-02-29T03:24:01.226Z,12.01
2024-02-29T03:26:29.803Z,12.06
2024-02-29T03:28:56.733Z,12.13
2024-02-29T03:31:23.710Z,12.17
2024-02-29T03:33:50.683Z,12.15
2024-02-29T03:36:17.600Z,12.16
2024-02-29T03:38:44.586Z,12.34
2024-02-29T03:41:11.541Z,12.29
2024-02-29T03:43:38.559Z,12.24
2024-02-29T03:46:05.546Z,12.15
2024-02-29T03:48:32.707Z,12.32
2024-02-29T03:50:59.716Z,12.34
2024-02-29T03:53:26.565Z,12.26
2024-02-29T03:55:53.686Z,12.19
2024-02-29T03:58:21.415Z,12.16
2024-02-29T04:00:50.248Z,11.98
2024-02-29T04:03:17.298Z,12.02
2024-02-29T04:05:44.722Z,12.11
2024-02-29T04:08:14.889Z,12.02
2024-02-29T04:10:50.133Z,12.02
2024-02-29T04:13:18.997Z,12.11
2024-02-29T04:15:49.304Z,12.22
2024-02-29T04:18:16.814Z,12.03
2024-02-29T04:20:43.801Z,12.05
2024-02-29T04:23:10.768Z,12.04
2024-02-29T04:25:37.885Z,11.96
2024-02-29T04:28:05.369Z,11.92
2024-02-29T04:30:33.514Z,12.01
2024-02-29T04:33:02.000Z,11.97
2024-02-29T04:35:29.034Z,11.90
2024-02-29T04:37:55.884Z,11.90
2024-02-29T04:40:22.913Z,11.81
2024-02-29T04:42:49.871Z,11.94
2024-02-29T04:45:16.988Z,11.94
2024-02-29T04:47:43.924Z,11.83
2024-02-29T04:50:11.081Z,11.88
2024-02-29T04:52:37.989Z,11.81
2024-02-29T04:55:05.304Z,11.84
2024-02-29T04:57:32.277Z,11.84
2024-02-29T04:59:59.150Z,11.87
2024-02-29T05:02:26.080Z,11.86
2024-02-29T05:04:52.996Z,11.83
2024-02-29T05:07:19.917Z,11.71
2024-02-29T05:09:46.878Z,11.63
2024-02-29T05:12:13.830Z,11.75
2024-02-29T05:14:41.220Z,11.87
2024-02-29T05:17:08.158Z,11.74
2024-02-29T05:19:36.466Z,11.77
2024-02-29T05:22:03.596Z,11.67
2024-02-29T05:24:31.355Z,11.75
2024-02-29T05:26:58.434Z,12.02
2024-02-29T05:29:25.355Z,12.01
2024-02-29T05:31:53.616Z,11.93
2024-02-29T05:34:25.257Z,11.87
2024-02-29T05:36:52.369Z,11.81
2024-02-29T05:39:19.655Z,11.89
2024-02-29T05:41:46.748Z,11.83
2024-02-29T05:44:13.784Z,11.88
2024-02-29T05:46:40.723Z,11.81
2024-02-29T05:49:07.887Z,11.81
2024-02-29T05:51:34.832Z,11.67
2024-02-29T05:54:01.893Z,11.67
2024-02-29T05:56:28.801Z,11.77
2024-02-29T05:58:56.946Z,11.72
2024-02-29T06:01:24.013Z,11.70
2024-02-29T06:03:50.991Z,11.69
2024-02-29T06:06:18.124Z,11.65
2024-02-29T06:08:45.208Z,11.62
2024-02-29T06:11:14.882Z,11.73
2024-02-29T06:19:03.433Z,11.55
2024-02-29T06:21:40.603Z,11.68
2024-02-29T06:24:13.604Z,11.58
2024-02-29T06:26:41.661Z,11.64
2024-02-29T06:29:10.918Z,11.61
2024-02-29T06:31:47.477Z,11.64
2024-02-29T06:34:14.586Z,11.66
2024-02-29T06:36:45.160Z,11.71
2024-02-29T06:39:16.971Z,11.71
2024-02-29T06:41:48.651Z,11.49
2024-02-29T06:44:16.892Z,11.57
2024-02-29T06:46:45.148Z,11.69
2024-02-29T06:49:14.911Z,11.66
2024-02-29T06:51:43.724Z,11.64
2024-02-29T06:54:13.788Z,11.60
2024-02-29T06:56:40.875Z,11.54
2024-02-29T06:59:09.037Z,11.60
2024-02-29T07:01:37.485Z,11.57
2024-02-29T07:04:09.383Z,11.59
2024-02-29T07:06:40.810Z,11.66
2024-02-29T07:09:14.802Z,11.72
2024-02-29T07:11:44.896Z,11.64
2024-02-29T07:14:14.328Z,11.63
2024-02-29T07:16:43.161Z,11.68
2024-02-29T07:19:10.629Z,11.70
2024-02-29T07:21:44.598Z,11.82
2024-02-29T07:24:20.634Z,11.85
2024-02-29T07:27:00.776Z,11.73
2024-02-29T07:29:32.057Z,11.71
2024-02-29T07:31:59.286Z,11.79
2024-02-29T07:34:27.104Z,11.74
2024-02-29T07:36:58.629Z,11.66
2024-02-29T07:39:47.041Z,11.74
2024-02-29T07:42:14.252Z,11.77
2024-02-29T07:44:41.546Z,11.81
2024-02-29T07:47:14.830Z,11.72
2024-02-29T07:49:42.194Z,11.76
2024-02-29T07:52:10.943Z,11.66
2024-02-29T07:54:42.878Z,11.73
2024-02-29T07:57:11.654Z,11.68
2024-02-29T07:59:58.963Z,11.71
2024-02-29T08:02:28.495Z,11.75
2024-02-29T08:04:57.517Z,11.72
2024-02-29T08:07:24.508Z,11.90
2024-02-29T08:10:16.753Z,11.98
2024-02-29T08:13:14.693Z,11.88
2024-02-29T08:15:55.986Z,11.97
2024-02-29T08:18:33.640Z,12.00
2024-02-29T08:21:00.934Z,12.10
2024-02-29T08:23:28.948Z,12.01
2024-02-29T08:25:58.882Z,12.10
2024-02-29T08:28:31.754Z,12.13
2024-02-29T08:31:11.826Z,12.03
2024-02-29T08:33:45.404Z,12.13
2024-02-29T08:36:18.362Z,12.13
2024-02-29T08:41:15.358Z,12.14
2024-02-29T08:43:44.414Z,12.16
2024-02-29T08:46:15.686Z,12.03
2024-02-29T08:48:44.508Z,12.03
2024-02-29T08:51:11.641Z,12.01
2024-02-29T08:53:41.894Z,12.05
2024-02-29T08:59:11.078Z,12.13
2024-02-29T09:01:39.642Z,12.09
2024-02-29T09:04:22.857Z,12.09
2024-02-29T09:06:51.553Z,12.09
2024-02-29T09:12:07.847Z,12.11
2024-02-29T09:14:35.261Z,12.09
2024-02-29T09:17:04.041Z,12.13
2024-02-29T09:19:30.968Z,12.22
2024-02-29T09:21:58.047Z,12.26
2024-02-29T09:24:29.535Z,12.24
2024-02-29T09:26:57.946Z,12.24
2024-02-29T09:29:34.604Z,12.22
2024-02-29T09:32:04.085Z,12.20
2024-02-29T09:34:36.430Z,12.35
2024-02-29T09:37:06.439Z,12.36
2024-02-29T09:39:33.952Z,12.34
2024-02-29T09:42:12.476Z,12.45
2024-02-29T09:44:45.296Z,12.38
2024-02-29T09:47:16.280Z,12.32
2024-02-29T09:49:45.147Z,12.36
2024-02-29T09:52:16.573Z,12.38
2024-02-29T09:54:51.946Z,12.42
2024-02-29T09:57:19.299Z,12.35
2024-02-29T09:59:47.145Z,12.43
2024-02-29T10:02:19.074Z,12.47
2024-02-29T10:04:47.800Z,12.44
2024-02-29T10:07:16.924Z,12.37
2024-02-29T10:09:52.100Z,12.39
2024-02-29T10:12:19.870Z,12.61
2024-02-29T10:14:48.602Z,12.47
2024-02-29T10:17:24.535Z,12.41
2024-02-29T10:19:58.179Z,12.40
2024-02-29T10:22:26.302Z,12.40
2024-02-29T10:24:59.454Z,12.47
2024-02-29T10:27:26.728Z,12.37
2024-02-29T10:29:59.773Z,12.37
2024-02-29T10:32:31.700Z,12.37
2024-02-29T10:35:29.201Z,12.43
2024-02-29T10:38:07.011Z,12.48
2024-02-29T10:40:36.590Z,12.56
2024-02-29T10:43:04.408Z,12.45
2024-02-29T10:45:34.175Z,12.47
2024-02-29T10:48:58.989Z,12.35
2024-02-29T10:51:33.018Z,12.43
2024-02-29T10:54:35.265Z,12.43
2024-02-29T10:57:06.454Z,12.43
2024-02-29T10:59:41.353Z,12.43
2024-02-29T11:02:11.766Z,12.52
2024-02-29T11:04:39.012Z,12.53
2024-02-29T11:07:07.408Z,12.48
2024-02-29T11:09:37.505Z,12.48
2024-02-29T11:12:17.213Z,12.63
2024-02-29T11:14:46.976Z,12.59
2024-02-29T11:17:16.855Z,12.75
2024-02-29T11:19:51.896Z,12.74
2024-02-29T11:22:34.976Z,12.68
2024-02-29T11:25:14.226Z,12.68
2024-02-29T11:27:49.196Z,12.65
2024-02-29T11:30:33.639Z,12.64
2024-02-29T11:33:11.284Z,12.63
2024-02-29T11:35:39.722Z,12.59
2024-02-29T11:38:17.530Z,12.57
2024-02-29T11:40:50.999Z,12.69
2024-02-29T11:43:18.715Z,12.71
2024-02-29T11:45:46.525Z,12.78
2024-02-29T11:48:14.111Z,12.66
2024-02-29T11:50:41.291Z,12.68
2024-02-29T11:53:16.533Z,12.83
2024-02-29T11:55:59.053Z,12.89
2024-02-29T11:58:38.059Z,12.89
2024-02-29T12:01:05.538Z,12.89
2024-02-29T12:03:40.412Z,12.89
2024-02-29T12:06:07.866Z,12.95
2024-02-29T12:08:34.980Z,12.93
2024-02-29T12:11:03.189Z,12.90
2024-02-29T12:13:36.189Z,12.85
2024-02-29T12:16:09.136Z,12.86
2024-02-29T12:18:37.718Z,12.88
2024-02-29T12:21:05.591Z,12.99
2024-02-29T12:23:35.818Z,12.95
2024-02-29T12:26:12.915Z,12.96
2024-02-29T12:28:40.703Z,13.04
2024-02-29T12:31:17.356Z,13.11
2024-02-29T12:33:51.152Z,13.13
2024-02-29T12:36:21.266Z,13.08
2024-02-29T12:38:58.714Z,13.13
2024-02-29T12:41:29.003Z,13.20
2024-02-29T12:43:58.438Z,13.25
2024-02-29T12:46:33.170Z,13.31
2024-02-29T12:49:03.433Z,13.33
2024-02-29T12:51:33.726Z,13.41
2024-02-29T12:54:01.699Z,13.42
2024-02-29T12:56:32.414Z,13.42
2024-02-29T12:59:02.600Z,13.31
2024-02-29T13:01:33.664Z,13.31
2024-02-29T13:04:00.757Z,13.26
2024-02-29T13:06:27.785Z,13.17
2024-02-29T13:08:55.251Z,13.13
2024-02-29T13:11:25.163Z,13.20
2024-02-29T13:13:59.646Z,13.24
2024-02-29T13:16:26.701Z,13.45
2024-02-29T13:18:54.436Z,13.35
2024-02-29T13:21:27.868Z,13.33
2024-02-29T13:24:08.400Z,13.36
2024-02-29T13:26:35.612Z,13.36
2024-02-29T13:29:06.449Z,13.37
2024-02-29T13:31:34.479Z,13.57
2024-02-29T13:34:01.840Z,13.46
2024-02-29T13:36:36.609Z,13.53
2024-02-29T13:39:04.405Z,13.54
2024-02-29T13:41:31.334Z,13.68
2024-02-29T13:43:58.289Z,13.63
2024-02-29T13:46:26.398Z,13.51
2024-02-29T13:48:54.727Z,13.47
2024-02-29T13:51:44.328Z,13.48
2024-02-29T13:54:12.628Z,13.46
2024-02-29T13:56:39.900Z,13.48
2024-02-29T13:59:07.147Z,13.50
2024-02-29T21:26:11.915Z,12.66
2024-02-29T21:28:38.965Z,12.67
2024-02-29T21:31:06.482Z,12.51
2024-02-29T21:33:34.533Z,12.50
2024-02-29T21:36:02.662Z,12.52
2024-02-29T21:38:30.901Z,12.55
2024-02-29T21:41:04.305Z,12.65
2024-02-29T21:43:32.426Z,12.57
2024-02-29T21:45:59.822Z,12.55
2024-02-29T21:48:26.779Z,12.64
2024-02-29T21:50:55.573Z,12.62
2024-02-29T21:53:23.536Z,12.58
2024-02-29T21:55:53.498Z,12.50
2024-02-29T21:58:20.494Z,12.62
2024-02-29T22:00:47.592Z,12.63
2024-02-29T22:03:14.915Z,12.71
2024-02-29T22:05:44.526Z,12.60
2024-02-29T22:08:12.787Z,12.59
2024-02-29T22:10:39.818Z,12.55
2024-02-29T22:13:09.306Z,12.52
2024-02-29T22:15:36.461Z,12.54
2024-02-29T22:18:03.644Z,12.61
2024-02-29T22:20:31.242Z,12.55
2024-02-29T22:22:58.261Z,12.56
2024-02-29T22:25:25.695Z,12.56
2024-02-29T22:27:54.842Z,12.50
2024-02-29T22:30:21.863Z,12.58
2024-02-29T22:32:48.950Z,12.60
2024-02-29T22:35:17.828Z,12.52
2024-02-29T22:37:45.828Z,12.62
2024-02-29T22:40:13.440Z,12.57
2024-02-29T22:42:40.527Z,12.64
2024-02-29T22:45:10.240Z,12.61
2024-02-29T22:47:37.536Z,12.62
2024-02-29T22:50:05.965Z,12.55
2024-02-29T22:52:32.908Z,12.59
2024-02-29T22:55:00.008Z,12.49
2024-02-29T22:57:45.704Z,12.49
2024-02-29T23:02:54.846Z,12.39
2024-02-29T23:05:25.093Z,12.40
2024-02-29T23:07:56.942Z,12.47
2024-02-29T23:10:25.437Z,12.44
2024-02-29T23:12:52.743Z,12.42
2024-02-29T23:15:20.352Z,12.41
2024-02-29T23:17:58.864Z,12.40
2024-02-29T23:26:16.956Z,12.36
2024-02-29T23:28:46.790Z,12.38
2024-02-29T23:31:19.707Z,12.41
2024-02-29T23:33:54.353Z,12.31
2024-02-29T23:39:19.558Z,12.31
2024-02-29T23:41:48.889Z,12.39
2024-02-29T23:44:28.028Z,12.40
2024-02-29T23:46:55.403Z,12.44
2024-02-29T23:49:22.287Z,12.39
2024-02-29T23:51:49.214Z,12.40
2024-02-29T23:54:16.029Z,12.38
2024-02-29T23:56:45.507Z,12.33
2024-02-29T23:59:18.078Z,12.31
